Terminal Aerodrome Forecast
Issued by NWS

Home | Current Version | Previous Version | Text Only | Print | Product List | Glossary Off
Versions: 1 2 3 4 5 6 7 8 9 10 11 12 13 14 15 16

297
FTUS43 KBIS 051129
TAFJMS
TAF
KJMS 051129Z 0512/0612 26004KT P6SM BKN035
     FM051300 30004KT P6SM VCSH OVC060
     FM051500 33007KT P6SM BKN045
     FM051800 32009KT P6SM SCT140
     FM052300 26006KT P6SM FEW200
     FM060600 23006KT P6SM BKN150=

USA.gov is the U.S. government's official web portal to all federal, state and local government web resources and services.